createdAt,value
2023-04-29T00:00:11.545Z,33.20
2023-04-29T00:01:43.006Z,33.82
2023-04-29T00:03:14.570Z,33.17
2023-04-29T00:04:46.321Z,36.28
2023-04-29T00:06:18.282Z,32.42
2023-04-29T00:07:49.752Z,33.84
2023-04-29T00:09:21.293Z,36.66
2023-04-29T00:10:52.620Z,36.39
2023-04-29T00:12:23.961Z,34.63
2023-04-29T00:13:55.311Z,35.33
2023-04-29T00:15:28.042Z,38.54
2023-04-29T00:16:59.535Z,38.52
2023-04-29T00:18:30.825Z,39.29
2023-04-29T00:20:02.194Z,37.74
2023-04-29T00:21:33.526Z,37.20
2023-04-29T00:23:05.019Z,39.95
2023-04-29T00:24:36.652Z,38.55
2023-04-29T00:26:08.187Z,40.95
2023-04-29T00:27:39.640Z,42.13
2023-04-29T00:29:11.028Z,40.23
2023-04-29T00:30:42.341Z,40.30
2023-04-29T00:32:13.600Z,44.06
2023-04-29T00:33:44.976Z,40.39
2023-04-29T00:35:16.235Z,43.99
2023-04-29T00:36:47.593Z,43.13
2023-04-29T00:38:18.952Z,39.43
2023-04-29T00:39:50.738Z,46.71
2023-04-29T00:41:22.233Z,43.80
2023-04-29T00:42:53.478Z,42.60
2023-04-29T00:44:24.916Z,45.81
2023-04-29T00:45:56.561Z,48.45
2023-04-29T00:47:28.018Z,48.04
2023-04-29T00:48:59.347Z,47.16
2023-04-29T00:50:30.596Z,48.67
2023-04-29T00:52:01.946Z,50.93
2023-04-29T00:53:33.484Z,52.10
2023-04-29T00:55:04.907Z,53.15
2023-04-29T00:56:36.272Z,52.66
2023-04-29T00:58:07.614Z,55.57
2023-04-29T00:59:38.898Z,53.20
2023-04-29T01:01:10.251Z,51.62
2023-04-29T01:02:41.900Z,49.79
2023-04-29T01:04:13.472Z,49.94
2023-04-29T01:05:44.808Z,50.30
2023-04-29T01:07:16.509Z,48.23
2023-04-29T01:08:47.907Z,48.26
2023-04-29T01:10:19.364Z,49.20
2023-04-29T01:11:50.732Z,52.20
2023-04-29T01:13:21.986Z,48.36
2023-04-29T01:14:53.384Z,51.37
2023-04-29T01:16:24.739Z,51.40
2023-04-29T01:17:56.146Z,50.09
2023-04-29T01:19:27.509Z,52.00
2023-04-29T01:20:58.772Z,53.11
2023-04-29T01:22:30.021Z,52.98
2023-04-29T01:24:01.754Z,53.88
2023-04-29T01:25:33.233Z,53.92
2023-04-29T01:27:04.653Z,55.94
2023-04-29T01:28:35.915Z,55.08
2023-04-29T01:30:07.338Z,56.25
2023-04-29T01:31:38.857Z,55.89
2023-04-29T01:33:10.311Z,50.08
2023-04-29T01:34:41.721Z,51.47
2023-04-29T01:36:12.950Z,61.54
2023-04-29T01:37:44.538Z,59.46
2023-04-29T01:39:15.787Z,65.49
2023-04-29T01:40:52.136Z,68.75
2023-04-29T01:42:28.586Z,66.07
2023-04-29T01:44:01.032Z,75.05
2023-04-29T01:45:32.324Z,74.87
2023-04-29T01:47:13.629Z,78.69
2023-04-29T01:48:44.888Z,79.05
2023-04-29T01:50:16.405Z,84.33
2023-04-29T01:51:47.868Z,80.60
2023-04-29T01:53:19.198Z,83.10
2023-04-29T01:54:50.424Z,88.87
2023-04-29T01:56:21.695Z,82.80
2023-04-29T01:57:53.221Z,87.54
2023-04-29T01:59:31.462Z,94.85
2023-04-29T02:01:03.243Z,94.80
2023-04-29T02:02:34.850Z,93.80
2023-04-29T02:04:06.484Z,93.95
2023-04-29T02:05:38.072Z,95.32
2023-04-29T02:07:09.419Z,95.49
2023-04-29T02:08:40.667Z,100.36
2023-04-29T02:10:12.050Z,96.87
2023-04-29T02:11:43.471Z,95.45
2023-04-29T02:13:14.803Z,87.53
2023-04-29T02:14:46.067Z,93.35
2023-04-29T02:16:17.327Z,101.50
2023-04-29T02:17:48.693Z,101.94
2023-04-29T02:19:19.985Z,93.37
2023-04-29T02:20:51.526Z,100.51
2023-04-29T02:22:22.761Z,97.28
2023-04-29T02:23:54.188Z,92.75
2023-04-29T02:25:25.777Z,94.06
2023-04-29T02:26:57.151Z,94.77
2023-04-29T02:28:28.684Z,88.82
2023-04-29T02:30:00.189Z,102.81
2023-04-29T02:31:31.694Z,106.78
2023-04-29T02:33:03.191Z,116.61
2023-04-29T02:34:34.469Z,105.36
2023-04-29T02:36:05.699Z,107.63
2023-04-29T02:37:37.004Z,111.81
2023-04-29T02:39:08.454Z,115.09
2023-04-29T02:40:39.841Z,105.01
2023-04-29T02:42:11.214Z,98.54
2023-04-29T02:43:43.475Z,100.23
2023-04-29T02:45:14.738Z,102.50
2023-04-29T02:46:46.036Z,102.16
2023-04-29T02:48:17.326Z,108.71
2023-04-29T02:49:48.655Z,116.77
2023-04-29T02:51:19.998Z,108.88
2023-04-29T02:52:51.454Z,108.07
2023-04-29T02:54:22.668Z,99.12
2023-04-29T02:55:53.935Z,97.97
2023-04-29T02:57:25.269Z,98.92
2023-04-29T02:58:56.517Z,91.89
2023-04-29T03:00:28.043Z,89.92
2023-04-29T03:01:59.373Z,93.61
2023-04-29T03:03:31.102Z,84.11
2023-04-29T03:05:02.563Z,80.57
2023-04-29T03:06:34.491Z,71.32
2023-04-29T03:08:05.858Z,72.21
2023-04-29T03:09:37.243Z,71.77
2023-04-29T03:11:08.549Z,61.97
2023-04-29T03:12:39.857Z,59.04
2023-04-29T03:14:11.216Z,56.33
2023-04-29T03:15:42.571Z,47.34
2023-04-29T03:17:13.866Z,50.60
2023-04-29T03:18:45.321Z,51.13
2023-04-29T03:20:16.645Z,58.61
2023-04-29T03:21:48.071Z,48.99
2023-04-29T03:23:19.288Z,50.65
2023-04-29T03:24:50.703Z,52.37
2023-04-29T03:26:22.181Z,50.75
2023-04-29T03:27:53.472Z,55.32
2023-04-29T03:29:25.120Z,54.49
2023-04-29T03:30:56.830Z,54.65
2023-04-29T03:32:28.319Z,54.68
2023-04-29T03:33:59.618Z,52.96
2023-04-29T03:35:30.859Z,51.73
2023-04-29T03:37:02.157Z,53.88
2023-04-29T03:38:33.409Z,56.33
2023-04-29T03:40:04.672Z,55.43
2023-04-29T03:41:35.900Z,60.37
2023-04-29T03:43:07.170Z,59.50
2023-04-29T03:44:38.852Z,56.27
2023-04-29T03:46:10.099Z,57.80
2023-04-29T03:47:41.614Z,59.11
2023-04-29T03:49:13.033Z,59.71
2023-04-29T03:50:44.432Z,60.13
2023-04-29T03:52:15.700Z,58.03
2023-04-29T03:53:46.971Z,62.38
2023-04-29T03:55:18.332Z,61.15
2023-04-29T03:56:49.761Z,52.92
2023-04-29T03:58:21.423Z,54.33
2023-04-29T03:59:52.976Z,57.43
2023-04-29T04:01:24.459Z,59.20
2023-04-29T04:02:55.820Z,52.92
2023-04-29T04:04:27.691Z,56.61
2023-04-29T04:05:59.220Z,57.08
2023-04-29T04:07:30.652Z,56.82
2023-04-29T04:09:01.965Z,55.29
2023-04-29T04:10:33.332Z,55.36
2023-04-29T04:12:04.925Z,51.14
2023-04-29T04:13:36.225Z,56.01
2023-04-29T04:15:07.515Z,57.98
2023-04-29T04:16:38.868Z,55.29
2023-04-29T04:18:10.337Z,56.82
2023-04-29T04:19:41.962Z,54.69
2023-04-29T04:21:13.406Z,53.92
2023-04-29T04:22:44.885Z,55.33
2023-04-29T04:24:16.346Z,53.38
2023-04-29T04:25:48.043Z,57.48
2023-04-29T04:27:19.375Z,57.64
2023-04-29T04:28:50.690Z,58.32
2023-04-29T04:30:22.427Z,55.80
2023-04-29T04:31:53.819Z,55.53
2023-04-29T04:33:25.103Z,51.54
2023-04-29T04:34:56.741Z,50.85
2023-04-29T04:36:28.106Z,50.49
2023-04-29T04:37:59.516Z,50.42
2023-04-29T04:39:30.937Z,47.67
2023-04-29T04:41:02.201Z,49.58
2023-04-29T04:42:33.550Z,47.29
2023-04-29T04:44:05.037Z,44.78
2023-04-29T04:45:36.538Z,44.90
2023-04-29T04:47:07.931Z,45.22
2023-04-29T04:48:39.196Z,47.98
2023-04-29T04:50:10.746Z,46.13
2023-04-29T04:51:42.072Z,44.91
2023-04-29T04:53:13.305Z,48.80
2023-04-29T04:54:44.570Z,49.47
2023-04-29T04:56:15.819Z,49.38
2023-04-29T04:58:04.368Z,47.59
2023-04-29T04:59:35.805Z,47.81
2023-04-29T05:01:07.099Z,45.71
2023-04-29T05:02:38.768Z,49.06
2023-04-29T05:04:10.164Z,48.00
2023-04-29T05:05:41.444Z,47.00
2023-04-29T05:07:12.668Z,47.65
2023-04-29T05:08:43.935Z,47.77
2023-04-29T05:10:15.506Z,47.23
2023-04-29T05:11:46.851Z,51.25
2023-04-29T05:13:18.332Z,48.58
2023-04-29T05:14:49.575Z,46.67
2023-04-29T05:16:20.854Z,46.31
2023-04-29T05:17:52.396Z,49.34
2023-04-29T05:19:23.843Z,51.41
2023-04-29T05:20:55.358Z,50.88
2023-04-29T05:22:26.665Z,51.42
2023-04-29T05:23:58.015Z,52.33
2023-04-29T05:25:29.346Z,47.18
2023-04-29T05:27:20.618Z,52.19
2023-04-29T05:28:51.885Z,52.64
2023-04-29T05:31:48.596Z,49.20
2023-04-29T05:33:19.933Z,51.16
2023-04-29T05:34:51.277Z,52.19
2023-04-29T05:36:22.586Z,51.57
2023-04-29T05:37:54.056Z,51.15
2023-04-29T05:39:25.855Z,52.83
2023-04-29T05:40:57.087Z,52.09
2023-04-29T05:42:28.334Z,51.38
2023-04-29T05:43:59.615Z,52.18
2023-04-29T05:45:30.821Z,53.11
2023-04-29T05:47:02.096Z,50.14
2023-04-29T05:48:34.593Z,49.03
2023-04-29T05:50:05.851Z,48.49
2023-04-29T05:51:37.099Z,53.17
2023-04-29T05:53:08.525Z,50.08
2023-04-29T05:54:40.092Z,46.93
2023-04-29T05:56:11.364Z,51.07
2023-04-29T05:57:42.616Z,51.79
2023-04-29T05:59:13.901Z,50.62
2023-04-29T06:00:45.208Z,51.72
2023-04-29T06:02:16.711Z,46.58
2023-04-29T06:03:48.303Z,50.44
2023-04-29T06:05:20.117Z,49.88
2023-04-29T06:06:51.836Z,48.22
2023-04-29T06:08:23.515Z,47.45
2023-04-29T06:09:55.420Z,48.76
2023-04-29T06:11:26.837Z,50.57
2023-04-29T06:12:58.259Z,50.60
2023-04-29T06:14:29.569Z,49.26
2023-04-29T06:16:00.830Z,46.94
2023-04-29T06:17:32.421Z,44.77
2023-04-29T06:19:03.801Z,45.21
2023-04-29T06:20:37.364Z,44.48
2023-04-29T06:22:09.171Z,43.58
2023-04-29T06:23:40.452Z,44.46
2023-04-29T06:25:11.967Z,43.32
2023-04-29T06:26:43.226Z,43.06
2023-04-29T06:28:14.433Z,43.39
2023-04-29T06:29:45.739Z,45.13
2023-04-29T06:31:17.211Z,44.95
2023-04-29T06:32:48.582Z,43.83
2023-04-29T06:34:19.954Z,41.99
2023-04-29T06:35:51.505Z,44.84
2023-04-29T06:37:22.954Z,41.08
2023-04-29T06:38:54.190Z,42.91
2023-04-29T06:40:25.626Z,45.25
2023-04-29T06:41:56.871Z,43.49
2023-04-29T06:43:28.337Z,42.80
2023-04-29T06:44:59.763Z,44.09
2023-04-29T06:46:31.107Z,43.81
2023-04-29T06:48:02.531Z,40.58
2023-04-29T06:49:34.029Z,39.97
2023-04-29T06:51:05.326Z,42.33
2023-04-29T06:52:36.585Z,40.24
2023-04-29T06:54:08.189Z,40.75
2023-04-29T06:55:39.741Z,42.04
2023-04-29T06:57:11.045Z,41.48
2023-04-29T06:58:42.662Z,39.75
2023-04-29T07:00:15.121Z,39.75
2023-04-29T07:01:51.371Z,41.88
2023-04-29T07:03:23.582Z,39.19
2023-04-29T07:04:55.280Z,41.13
2023-04-29T07:06:26.561Z,41.09
2023-04-29T07:07:57.891Z,38.87
2023-04-29T07:09:29.255Z,37.94
2023-04-29T07:11:00.494Z,38.40
2023-04-29T07:12:31.832Z,39.82
2023-04-29T07:14:03.129Z,39.81
2023-04-29T07:15:34.392Z,39.70
2023-04-29T07:17:12.742Z,37.24
2023-04-29T07:18:45.454Z,41.44
2023-04-29T07:20:16.693Z,41.76
2023-04-29T07:21:48.412Z,37.16
2023-04-29T07:23:19.772Z,40.52
2023-04-29T07:24:51.437Z,42.50
2023-04-29T07:26:22.865Z,43.89
2023-04-29T07:27:54.239Z,43.43
2023-04-29T07:29:25.479Z,39.91
2023-04-29T07:31:38.570Z,42.66
2023-04-29T07:33:09.991Z,40.02
2023-04-29T07:34:41.241Z,41.93
2023-04-29T07:36:12.535Z,40.41
2023-04-29T07:37:44.172Z,40.51
2023-04-29T07:39:15.513Z,43.31
2023-04-29T07:40:46.783Z,38.64
2023-04-29T07:42:18.217Z,42.09
2023-04-29T07:43:49.627Z,46.19
2023-04-29T07:45:20.836Z,45.09
2023-04-29T07:46:52.171Z,47.34
2023-04-29T07:48:23.426Z,44.89
2023-04-29T07:49:55.036Z,45.19
2023-04-29T07:51:26.346Z,46.25
2023-04-29T07:52:57.625Z,47.14
2023-04-29T07:54:28.991Z,45.67
2023-04-29T07:56:00.442Z,45.29
2023-04-29T07:57:31.861Z,44.87
2023-04-29T07:59:03.076Z,47.78
2023-04-29T08:00:34.923Z,50.26
2023-04-29T08:02:06.515Z,52.88
2023-04-29T08:03:40.547Z,54.56
2023-04-29T08:05:12.831Z,52.84
2023-04-29T08:06:44.293Z,51.17
2023-04-29T08:08:15.510Z,50.57
2023-04-29T08:09:52.016Z,52.87
2023-04-29T08:11:23.275Z,54.01
2023-04-29T08:12:54.712Z,53.41
2023-04-29T08:14:26.056Z,56.71
2023-04-29T08:15:57.620Z,54.01
2023-04-29T08:17:29.295Z,57.88
2023-04-29T08:19:06.093Z,58.20
2023-04-29T08:20:37.431Z,56.25
2023-04-29T08:22:08.641Z,53.76
2023-04-29T08:23:40.245Z,59.75
2023-04-29T08:25:11.514Z,56.55
2023-04-29T08:26:42.816Z,55.89
2023-04-29T08:28:14.165Z,59.85
2023-04-29T08:29:45.595Z,64.05
2023-04-29T08:31:17.052Z,60.07
2023-04-29T08:32:48.760Z,65.61
2023-04-29T08:34:20.211Z,66.82
2023-04-29T08:35:51.496Z,65.28
2023-04-29T08:37:22.737Z,63.09
2023-04-29T08:38:54.259Z,66.01
2023-04-29T08:40:25.607Z,66.48
2023-04-29T08:41:57.078Z,65.48
2023-04-29T08:43:28.385Z,70.09
2023-04-29T08:44:59.795Z,65.88
2023-04-29T08:46:31.844Z,71.98
2023-04-29T08:48:03.168Z,72.35
2023-04-29T08:49:34.869Z,68.20
2023-04-29T08:51:06.189Z,70.23
2023-04-29T08:52:37.451Z,69.92
2023-04-29T08:54:13.825Z,70.89
2023-04-29T08:55:46.212Z,72.31
2023-04-29T08:57:17.530Z,71.85
2023-04-29T08:58:49.300Z,66.00
2023-04-29T09:00:20.705Z,68.64
2023-04-29T09:01:52.051Z,72.79
2023-04-29T09:03:23.726Z,69.34
2023-04-29T09:04:55.509Z,78.76
2023-04-29T09:06:26.986Z,79.95
2023-04-29T09:07:58.411Z,75.12
2023-04-29T09:09:29.681Z,73.03
2023-04-29T09:11:00.911Z,79.48
2023-04-29T09:12:32.151Z,77.15
2023-04-29T09:14:03.555Z,78.89
2023-04-29T09:15:34.785Z,76.71
2023-04-29T09:17:06.034Z,77.94
2023-04-29T09:18:37.824Z,75.84
2023-04-29T09:20:09.318Z,78.09
2023-04-29T09:21:40.772Z,75.19
2023-04-29T09:23:12.007Z,76.97
2023-04-29T09:24:43.302Z,71.24
2023-04-29T09:26:15.588Z,70.33
2023-04-29T09:27:47.222Z,72.82
2023-04-29T09:29:18.580Z,71.70
2023-04-29T09:30:50.035Z,71.98
2023-04-29T09:32:21.621Z,77.01
2023-04-29T09:33:53.408Z,76.36
2023-04-29T09:35:24.647Z,73.16
2023-04-29T09:37:01.118Z,71.90
2023-04-29T09:38:32.483Z,70.81
2023-04-29T09:40:03.994Z,73.96
2023-04-29T09:41:35.249Z,70.98
2023-04-29T09:43:06.494Z,69.42
2023-04-29T09:44:37.884Z,65.33
2023-04-29T09:46:09.240Z,67.82
2023-04-29T09:47:40.628Z,63.93
2023-04-29T09:49:12.134Z,63.91
2023-04-29T09:50:48.529Z,62.21
2023-04-29T09:52:24.889Z,60.28
2023-04-29T09:53:56.330Z,60.29
2023-04-29T09:55:27.864Z,57.69
2023-04-29T09:56:59.158Z,55.02
2023-04-29T09:58:30.605Z,55.79
2023-04-29T10:00:01.869Z,56.80
2023-04-29T10:01:33.160Z,55.16
2023-04-29T10:03:04.604Z,55.55
2023-04-29T10:04:37.117Z,48.55
2023-04-29T10:06:10.147Z,49.73
2023-04-29T10:07:41.440Z,51.02
2023-04-29T10:09:12.877Z,51.88
2023-04-29T10:10:44.216Z,50.34
2023-04-29T10:12:16.138Z,48.83
2023-04-29T10:13:47.719Z,50.53
2023-04-29T10:15:19.139Z,48.23
2023-04-29T10:16:52.000Z,52.68
2023-04-29T10:18:23.552Z,54.33
2023-04-29T10:19:54.942Z,52.90
2023-04-29T10:21:26.273Z,51.47
2023-04-29T10:22:57.633Z,48.96
2023-04-29T10:24:29.178Z,49.50
2023-04-29T10:26:00.454Z,60.40
2023-04-29T10:27:31.756Z,46.13
2023-04-29T10:29:03.101Z,46.92
2023-04-29T10:30:34.439Z,47.51
2023-04-29T10:32:06.066Z,49.36
2023-04-29T10:33:37.715Z,50.58
2023-04-29T10:35:09.427Z,50.09
2023-04-29T10:36:41.863Z,49.66
2023-04-29T10:38:13.484Z,45.28
2023-04-29T10:39:45.361Z,42.77
2023-04-29T10:41:16.675Z,44.43
2023-04-29T10:42:48.011Z,40.28
2023-04-29T10:44:19.363Z,43.62
2023-04-29T10:45:50.657Z,44.73
2023-04-29T10:47:21.994Z,46.89
2023-04-29T10:48:53.543Z,46.03
2023-04-29T10:50:25.258Z,48.65
2023-04-29T10:51:56.572Z,44.57
2023-04-29T10:53:28.047Z,47.11
2023-04-29T10:54:59.581Z,45.84
2023-04-29T10:56:31.135Z,44.71
2023-04-29T10:58:02.405Z,44.20
2023-04-29T10:59:33.746Z,45.38
2023-04-29T11:01:05.170Z,43.00
2023-04-29T11:02:36.805Z,40.28
2023-04-29T11:04:08.210Z,41.82
2023-04-29T11:05:39.565Z,44.20
2023-04-29T11:07:11.075Z,42.93
2023-04-29T11:08:42.403Z,42.45
2023-04-29T11:10:13.943Z,41.46
2023-04-29T11:11:45.537Z,37.40
2023-04-29T11:13:16.874Z,39.21
2023-04-29T11:14:48.216Z,36.84
2023-04-29T11:16:19.712Z,38.65
2023-04-29T11:17:51.196Z,36.93
2023-04-29T11:19:22.555Z,36.05
2023-04-29T11:20:54.047Z,37.35
2023-04-29T11:22:25.658Z,35.43
2023-04-29T11:23:56.984Z,35.17
2023-04-29T11:25:28.464Z,31.32
2023-04-29T11:26:59.901Z,30.46
2023-04-29T11:28:31.208Z,35.02
2023-04-29T11:30:02.643Z,36.84
2023-04-29T11:31:34.063Z,35.70
2023-04-29T11:33:05.654Z,35.75
2023-04-29T11:34:37.249Z,32.89
2023-04-29T11:36:08.660Z,31.17
2023-04-29T11:37:40.146Z,29.52
2023-04-29T11:39:11.478Z,30.45
2023-04-29T11:40:42.836Z,31.27
2023-04-29T11:42:14.285Z,34.00
2023-04-29T11:43:45.627Z,32.32
2023-04-29T11:45:17.058Z,32.28
2023-04-29T11:46:48.551Z,29.31
2023-04-29T11:48:19.867Z,29.39
2023-04-29T11:49:51.139Z,31.28
2023-04-29T11:51:22.640Z,31.98
2023-04-29T11:52:53.993Z,31.53
2023-04-29T11:54:25.415Z,31.19
2023-04-29T11:56:01.771Z,29.95
2023-04-29T11:57:33.178Z,28.75
2023-04-29T11:59:04.524Z,28.10
2023-04-29T12:00:36.277Z,27.68
2023-04-29T12:02:07.810Z,28.93
2023-04-29T12:03:39.380Z,27.32
2023-04-29T12:05:11.006Z,26.96
2023-04-29T12:06:42.523Z,26.28
2023-04-29T12:08:13.829Z,25.09
2023-04-29T12:09:45.167Z,24.59
2023-04-29T12:11:16.605Z,23.58
2023-04-29T12:12:54.350Z,23.14
2023-04-29T12:14:25.819Z,22.65
2023-04-29T12:15:57.317Z,20.00
2023-04-29T12:17:28.985Z,22.42
2023-04-29T12:19:00.698Z,21.04
2023-04-29T12:20:32.293Z,20.08
2023-04-29T12:22:03.782Z,19.52
2023-04-29T12:23:35.294Z,20.07
2023-04-29T12:25:06.971Z,20.24
2023-04-29T12:26:38.373Z,21.36
2023-04-29T12:28:09.729Z,20.37
2023-04-29T12:29:41.133Z,19.10
2023-04-29T12:31:12.566Z,21.02
2023-04-29T12:32:44.169Z,24.32
2023-04-29T12:34:15.640Z,24.75
2023-04-29T12:35:47.184Z,20.19
2023-04-29T12:37:18.564Z,20.83
2023-04-29T12:38:50.314Z,19.82
2023-04-29T12:40:21.699Z,18.71
2023-04-29T12:41:53.087Z,17.07
2023-04-29T12:43:24.479Z,18.08
2023-04-29T12:44:56.136Z,18.77
2023-04-29T12:46:27.787Z,17.13
2023-04-29T12:47:59.840Z,17.98
2023-04-29T12:49:31.378Z,19.22
2023-04-29T12:51:02.689Z,21.61
2023-04-29T12:52:35.952Z,19.38
2023-04-29T12:54:08.126Z,21.19
2023-04-29T12:55:40.090Z,19.05
2023-04-29T12:57:11.493Z,20.98
2023-04-29T12:58:42.887Z,20.84
2023-04-29T13:00:14.338Z,21.62
2023-04-29T13:01:46.129Z,20.41
2023-04-29T13:03:20.337Z,20.25
2023-04-29T13:04:53.988Z,18.62
2023-04-29T13:06:25.873Z,19.13
2023-04-29T13:07:57.182Z,19.03
2023-04-29T13:09:28.561Z,19.57
2023-04-29T13:10:59.923Z,18.08
2023-04-29T13:12:31.557Z,18.72
2023-04-29T13:14:02.918Z,17.35
2023-04-29T13:15:34.298Z,18.80
2023-04-29T13:17:05.787Z,17.23
2023-04-29T13:18:37.310Z,17.09
2023-04-29T13:20:10.696Z,18.81
2023-04-29T13:21:42.298Z,21.19
2023-04-29T13:23:13.692Z,18.36
2023-04-29T13:24:45.174Z,20.97
2023-04-29T13:26:16.603Z,19.32
2023-04-29T13:27:47.984Z,20.12
2023-04-29T13:29:19.530Z,19.64
2023-04-29T13:30:51.280Z,17.65
2023-04-29T13:32:24.428Z,18.89
2023-04-29T13:33:56.153Z,17.72
2023-04-29T13:35:27.627Z,18.26
2023-04-29T13:36:59.063Z,20.28
2023-04-29T13:38:30.443Z,19.69
2023-04-29T13:40:02.128Z,18.77
2023-04-29T13:41:35.184Z,19.25
2023-04-29T13:43:09.585Z,19.02
2023-04-29T13:44:59.105Z,19.78
2023-04-29T13:46:31.612Z,36.38
2023-04-29T13:48:12.010Z,25.65
2023-04-29T13:50:16.559Z,18.43
2023-04-29T13:52:42.827Z,18.77
2023-04-29T14:01:10.311Z,19.72
2023-04-29T14:04:29.894Z,16.24
2023-04-29T14:06:01.438Z,16.63
2023-04-29T14:07:32.877Z,17.95
2023-04-29T14:09:04.398Z,19.38
2023-04-29T14:10:35.756Z,19.60
2023-04-29T14:12:07.243Z,15.35
2023-04-29T14:13:38.635Z,13.93
2023-04-29T14:15:11.311Z,13.69
2023-04-29T14:16:42.700Z,15.30
2023-04-29T14:18:14.123Z,15.37
2023-04-29T14:19:45.429Z,14.29
2023-04-29T14:21:16.752Z,14.87
2023-04-29T14:22:53.189Z,15.56
2023-04-29T14:24:24.736Z,14.96
2023-04-29T14:26:06.213Z,15.79
2023-04-29T14:27:48.356Z,15.84
2023-04-29T14:29:19.800Z,14.86
2023-04-29T14:30:51.175Z,14.94
2023-04-29T14:32:22.562Z,15.36
2023-04-29T14:33:53.900Z,15.13
2023-04-29T14:35:25.266Z,17.27
2023-04-29T14:36:56.628Z,16.07
2023-04-29T14:38:28.061Z,15.43
2023-04-29T14:39:59.367Z,16.14
2023-04-29T14:41:30.687Z,17.01
2023-04-29T14:43:07.342Z,15.13
2023-04-29T14:44:38.760Z,14.95
2023-04-29T14:46:10.267Z,14.41
2023-04-29T14:47:42.910Z,15.64
2023-04-29T14:49:14.346Z,18.24
2023-04-29T14:50:45.893Z,17.94
2023-04-29T14:52:17.707Z,17.77
2023-04-29T14:53:49.040Z,16.61
2023-04-29T14:55:20.389Z,15.79
2023-04-29T14:57:23.262Z,15.29
2023-04-29T14:58:59.889Z,15.82
2023-04-29T15:00:37.939Z,15.79
2023-04-29T15:02:09.352Z,16.14
2023-04-29T15:03:43.894Z,15.67
2023-04-29T15:05:54.611Z,15.76
2023-04-29T15:07:26.167Z,15.59
2023-04-29T15:08:57.509Z,14.14
2023-04-29T15:10:29.040Z,15.32
2023-04-29T15:12:00.717Z,14.36
2023-04-29T15:13:32.432Z,16.16
2023-04-29T15:15:04.037Z,14.70
2023-04-29T15:16:35.456Z,15.07
2023-04-29T15:18:06.981Z,14.87
2023-04-29T15:19:38.502Z,14.76
2023-04-29T15:21:09.801Z,13.91
2023-04-29T15:22:41.210Z,16.02
2023-04-29T15:24:12.543Z,14.78
2023-04-29T15:26:04.437Z,15.57
2023-04-29T15:27:36.090Z,14.92
2023-04-29T15:29:07.430Z,14.11
2023-04-29T15:32:32.366Z,16.09
2023-04-29T15:34:04.192Z,14.96
2023-04-29T15:35:35.844Z,12.82
2023-04-29T15:37:07.290Z,13.66
2023-04-29T15:38:38.830Z,13.93
2023-04-29T15:40:10.224Z,11.55
2023-04-29T15:41:41.665Z,12.35
2023-04-29T15:43:13.057Z,11.15
2023-04-29T15:44:44.489Z,12.17
2023-04-29T15:46:15.985Z,9.98
2023-04-29T15:47:52.587Z,11.45
2023-04-29T15:49:34.189Z,10.06
2023-04-29T15:51:05.630Z,10.41
2023-04-29T15:52:37.068Z,11.55
2023-04-29T15:54:08.642Z,10.68
2023-04-29T15:55:40.226Z,10.15
2023-04-29T15:57:11.666Z,10.64
2023-04-29T15:58:43.156Z,12.35
2023-04-29T16:00:14.529Z,12.23
2023-04-29T16:01:45.989Z,9.72
2023-04-29T16:03:17.605Z,11.26
2023-04-29T16:04:49.356Z,11.62
2023-04-29T16:06:20.831Z,10.55
2023-04-29T16:07:52.254Z,10.41
2023-04-29T16:09:28.612Z,11.83
2023-04-29T16:11:09.993Z,11.45
2023-04-29T16:12:56.085Z,10.77
2023-04-29T16:14:27.842Z,12.85
2023-04-29T16:15:59.444Z,12.77
2023-04-29T16:17:36.159Z,11.63
2023-04-29T16:19:07.551Z,11.18
2023-04-29T16:20:39.007Z,11.28
2023-04-29T16:22:20.483Z,11.07
2023-04-29T16:23:51.905Z,10.90
2023-04-29T16:25:28.332Z,12.40
2023-04-29T16:27:11.454Z,11.62
2023-04-29T16:28:42.907Z,12.84
2023-04-29T16:30:14.232Z,12.00
2023-04-29T16:31:45.696Z,12.08
2023-04-29T16:33:17.342Z,12.96
2023-04-29T16:35:03.973Z,12.26
2023-04-29T16:36:35.529Z,11.32
2023-04-29T16:38:07.829Z,12.59
2023-04-29T16:39:39.446Z,12.23
2023-04-29T16:41:10.735Z,14.75
2023-04-29T16:42:42.085Z,14.47
2023-04-29T16:44:13.595Z,14.21
2023-04-29T16:45:45.058Z,12.74
2023-04-29T16:47:16.387Z,13.04
2023-04-29T16:48:47.733Z,13.77
2023-04-29T16:50:19.298Z,13.26
2023-04-29T16:51:50.867Z,12.64
2023-04-29T16:53:22.239Z,14.83
2023-04-29T16:54:53.767Z,15.33
2023-04-29T16:56:25.205Z,14.28
2023-04-29T16:57:56.816Z,16.11
2023-04-29T16:59:28.201Z,18.19
2023-04-29T17:00:59.615Z,14.95
2023-04-29T17:02:30.946Z,15.19
2023-04-29T17:04:02.362Z,13.86
2023-04-29T17:05:38.837Z,14.46
2023-04-29T17:07:10.178Z,15.03
2023-04-29T17:08:41.586Z,16.78
2023-04-29T17:10:13.053Z,11.98
2023-04-29T17:11:44.454Z,10.74
2023-04-29T17:13:15.832Z,11.87
2023-04-29T17:14:47.188Z,12.71
2023-04-29T17:16:18.614Z,12.79
2023-04-29T17:17:50.276Z,13.43
2023-04-29T17:19:21.859Z,14.84
2023-04-29T17:20:53.328Z,15.38
2023-04-29T17:22:24.659Z,14.07
2023-04-29T17:23:56.206Z,13.67
2023-04-29T17:25:27.573Z,14.84
2023-04-29T17:27:00.312Z,12.36
2023-04-29T17:28:31.780Z,12.67
2023-04-29T17:30:31.825Z,12.65
2023-04-29T17:32:17.704Z,13.36
2023-04-29T17:34:15.538Z,15.56
2023-04-29T17:35:48.762Z,13.38
2023-04-29T17:37:20.280Z,11.43
2023-04-29T17:38:51.639Z,11.33
2023-04-29T17:40:23.053Z,10.66
2023-04-29T17:42:04.993Z,11.88
2023-04-29T17:43:36.306Z,11.34
2023-04-29T17:45:07.769Z,13.77
2023-04-29T17:46:39.417Z,10.99
2023-04-29T17:48:10.737Z,10.69
2023-04-29T17:49:42.089Z,10.65
2023-04-29T17:51:18.521Z,9.47
2023-04-29T17:52:49.857Z,9.93
2023-04-29T17:54:21.178Z,12.30
2023-04-29T17:55:52.748Z,12.34
2023-04-29T17:57:24.174Z,10.47
2023-04-29T17:58:55.605Z,11.77
2023-04-29T18:00:27.049Z,10.38
2023-04-29T18:01:58.774Z,11.73
2023-04-29T18:03:30.234Z,9.75
2023-04-29T18:05:01.637Z,10.01
2023-04-29T18:06:33.235Z,9.80
2023-04-29T18:08:05.148Z,11.03
2023-04-29T18:09:36.437Z,11.04
2023-04-29T18:11:07.840Z,11.81
2023-04-29T18:12:39.299Z,12.21
2023-04-29T18:14:10.735Z,10.42
2023-04-29T18:15:42.141Z,12.28
2023-04-29T18:17:13.402Z,10.75
2023-04-29T18:18:45.080Z,12.92
2023-04-29T18:20:16.403Z,19.20
2023-04-29T18:21:47.883Z,18.05
2023-04-29T18:23:19.293Z,18.68
2023-04-29T18:24:50.840Z,18.99
2023-04-29T18:26:22.191Z,18.40
2023-04-29T18:27:59.762Z,18.32
2023-04-29T18:29:39.443Z,15.11
2023-04-29T18:31:10.766Z,14.39
2023-04-29T18:32:42.232Z,11.64
2023-04-29T18:34:13.990Z,11.87
2023-04-29T18:35:45.553Z,12.30
2023-04-29T18:37:17.040Z,11.75
2023-04-29T18:38:48.373Z,12.56
2023-04-29T18:40:24.838Z,12.56
2023-04-29T18:41:56.247Z,11.74
2023-04-29T18:43:27.636Z,11.28
2023-04-29T18:44:59.115Z,13.72
2023-04-29T18:46:30.717Z,13.55
2023-04-29T18:48:03.226Z,13.14
2023-04-29T18:49:36.495Z,13.82
2023-04-29T18:51:09.527Z,12.53
2023-04-29T18:52:41.072Z,12.22
2023-04-29T18:54:12.820Z,13.14
2023-04-29T18:55:44.253Z,13.86
2023-04-29T18:57:15.833Z,12.50
2023-04-29T18:58:47.193Z,10.93
2023-04-29T19:00:18.701Z,13.15
2023-04-29T19:01:50.072Z,11.31
2023-04-29T19:03:21.451Z,12.64
2023-04-29T19:04:52.932Z,12.07
2023-04-29T19:06:24.347Z,12.43
2023-04-29T19:07:56.633Z,11.69
2023-04-29T19:09:28.106Z,12.24
2023-04-29T19:11:00.757Z,13.36
2023-04-29T19:12:32.629Z,12.97
2023-04-29T19:14:04.145Z,13.24
2023-04-29T19:15:35.715Z,12.05
2023-04-29T19:17:07.118Z,11.98
2023-04-29T19:18:38.678Z,11.97
2023-04-29T19:20:10.130Z,10.65
2023-04-29T19:21:41.565Z,10.85
2023-04-29T19:23:13.059Z,11.68
2023-04-29T19:24:44.499Z,13.33
2023-04-29T19:26:16.105Z,15.09
2023-04-29T19:27:47.684Z,11.67
2023-04-29T19:29:19.208Z,12.18
2023-04-29T19:31:10.040Z,12.21
2023-04-29T19:32:41.473Z,11.86
2023-04-29T19:34:12.805Z,12.48
2023-04-29T19:35:44.315Z,12.72
2023-04-29T19:37:15.629Z,10.95
2023-04-29T19:38:47.139Z,12.45
2023-04-29T19:40:19.022Z,13.72
2023-04-29T19:41:50.654Z,12.59
2023-04-29T19:43:21.957Z,12.70
2023-04-29T19:44:53.226Z,13.60
2023-04-29T19:46:24.626Z,13.46
2023-04-29T19:48:43.001Z,13.06
2023-04-29T19:50:25.796Z,12.63
2023-04-29T19:54:02.426Z,13.80
2023-04-29T19:55:34.074Z,14.22
2023-04-29T19:57:05.396Z,14.06
2023-04-29T19:58:36.765Z,13.82
2023-04-29T20:00:28.177Z,14.00
2023-04-29T20:02:04.963Z,13.07
2023-04-29T20:03:36.345Z,14.53